sensor_id;sensor_type;location;lat;lon;timestamp;temperature;humidity
15815;DHT22;8008;50.024;8.172;2023-12-14T04:00:21;6.00;99.90
15815;DHT22;8008;50.024;8.172;2023-12-14T04:02:49;6.10;99.90
15815;DHT22;8008;50.024;8.172;2023-12-14T04:05:17;6.10;99.90
15815;DHT22;8008;50.024;8.172;2023-12-14T04:07:45;6.20;99.90
15815;DHT22;8008;50.024;8.172;2023-12-14T04:10:13;6.00;99.90
15815;DHT22;8008;50.024;8.172;2023-12-14T04:12:41;5.90;99.90
15815;DHT22;8008;50.024;8.172;2023-12-14T04:15:10;5.90;99.90
15815;DHT22;8008;50.024;8.172;2023-12-14T04:17:39;5.90;99.90
15815;DHT22;8008;50.024;8.172;2023-12-14T04:20:08;5.90;99.90
15815;DHT22;8008;50.024;8.172;2023-12-14T04:22:37;5.80;99.90
15815;DHT22;8008;50.024;8.172;2023-12-14T04:25:06;5.80;99.90
15815;DHT22;8008;50.024;8.172;2023-12-14T04:27:34;5.80;99.90
15815;DHT22;8008;50.024;8.172;2023-12-14T04:30:03;5.70;99.90
15815;DHT22;8008;50.024;8.172;2023-12-14T04:32:32;5.70;99.90
15815;DHT22;8008;50.024;8.172;2023-12-14T04:35:02;5.80;99.90
15815;DHT22;8008;50.024;8.172;2023-12-14T04:37:31;5.80;99.90
15815;DHT22;8008;50.024;8.172;2023-12-14T04:39:59;5.80;99.90
15815;DHT22;8008;50.024;8.172;2023-12-14T04:42:27;5.80;99.90
15815;DHT22;8008;50.024;8.172;2023-12-14T04:44:55;5.80;99.90
15815;DHT22;8008;50.024;8.172;2023-12-14T04:47:22;5.80;99.90
15815;DHT22;8008;50.024;8.172;2023-12-14T04:49:50;5.70;99.90
15815;DHT22;8008;50.024;8.172;2023-12-14T04:52:20;5.80;99.90
15815;DHT22;8008;50.024;8.172;2023-12-14T04:54:48;5.80;99.90
15815;DHT22;8008;50.024;8.172;2023-12-14T04:57:16;5.80;99.90
15815;DHT22;8008;50.024;8.172;2023-12-14T04:59:45;5.80;99.90
15815;DHT22;8008;50.024;8.172;2023-12-14T05:02:12;5.90;99.90
15815;DHT22;8008;50.024;8.172;2023-12-14T05:04:40;6.00;99.90
15815;DHT22;8008;50.024;8.172;2023-12-14T05:07:08;6.00;99.90
15815;DHT22;8008;50.024;8.172;2023-12-14T05:09:38;6.10;99.90
15815;DHT22;8008;50.024;8.172;2023-12-14T05:12:06;6.20;99.90
15815;DHT22;8008;50.024;8.172;2023-12-14T05:14:34;6.20;99.90
15815;DHT22;8008;50.024;8.172;2023-12-14T05:17:02;6.30;99.90
15815;DHT22;8008;50.024;8.172;2023-12-14T05:19:32;6.30;99.90
15815;DHT22;8008;50.024;8.172;2023-12-14T05:22:03;6.40;99.90
15815;DHT22;8008;50.024;8.172;2023-12-14T05:24:31;6.40;99.90
15815;DHT22;8008;50.024;8.172;2023-12-14T05:27:01;6.50;99.90
15815;DHT22;8008;50.024;8.172;2023-12-14T05:29:29;6.60;99.90
15815;DHT22;8008;50.024;8.172;2023-12-14T05:31:57;6.70;99.90
15815;DHT22;8008;50.024;8.172;2023-12-14T05:34:26;6.70;99.90
15815;DHT22;8008;50.024;8.172;2023-12-14T05:36:54;6.80;99.90
15815;DHT22;8008;50.024;8.172;2023-12-14T05:39:21;6.90;99.90
15815;DHT22;8008;50.024;8.172;2023-12-14T05:41:50;6.90;99.90
15815;DHT22;8008;50.024;8.172;2023-12-14T05:44:19;7.00;99.90
15815;DHT22;8008;50.024;8.172;2023-12-14T05:46:47;7.00;99.90
15815;DHT22;8008;50.024;8.172;2023-12-14T05:49:15;7.00;99.90
15815;DHT22;8008;50.024;8.172;2023-12-14T05:51:43;7.00;99.90
15815;DHT22;8008;50.024;8.172;2023-12-14T05:54:11;7.00;99.90
15815;DHT22;8008;50.024;8.172;2023-12-14T05:56:39;7.10;99.90
15815;DHT22;8008;50.024;8.172;2023-12-14T05:59:08;7.10;99.90
15815;DHT22;8008;50.024;8.172;2023-12-14T06:01:38;7.10;99.90
15815;DHT22;8008;50.024;8.172;2023-12-14T06:04:06;7.10;99.90
15815;DHT22;8008;50.024;8.172;2023-12-14T06:06:34;7.10;99.90
15815;DHT22;8008;50.024;8.172;2023-12-14T06:09:02;7.10;99.90
15815;DHT22;8008;50.024;8.172;2023-12-14T06:11:30;7.20;99.90
15815;DHT22;8008;50.024;8.172;2023-12-14T06:13:58;7.20;99.90
15815;DHT22;8008;50.024;8.172;2023-12-14T06:16:26;7.30;99.90
15815;DHT22;8008;50.024;8.172;2023-12-14T06:18:55;7.40;99.90
15815;DHT22;8008;50.024;8.172;2023-12-14T06:21:23;7.40;99.90
15815;DHT22;8008;50.024;8.172;2023-12-14T06:23:52;7.60;99.90
15815;DHT22;8008;50.024;8.172;2023-12-14T06:26:20;7.60;99.90
15815;DHT22;8008;50.024;8.172;2023-12-14T06:28:48;7.60;99.90
15815;DHT22;8008;50.024;8.172;2023-12-14T06:31:17;7.60;99.90
15815;DHT22;8008;50.024;8.172;2023-12-14T06:33:47;7.60;99.90
15815;DHT22;8008;50.024;8.172;2023-12-14T06:36:17;7.50;99.90
15815;DHT22;8008;50.024;8.172;2023-12-14T06:38:45;7.60;99.90
15815;DHT22;8008;50.024;8.172;2023-12-14T06:41:20;7.70;99.90
15815;DHT22;8008;50.024;8.172;2023-12-14T06:43:48;7.70;99.90
15815;DHT22;8008;50.024;8.172;2023-12-14T06:46:16;7.70;99.90
15815;DHT22;8008;50.024;8.172;2023-12-14T06:48:44;7.70;99.90
15815;DHT22;8008;50.024;8.172;2023-12-14T06:51:12;7.70;99.90
15815;DHT22;8008;50.024;8.172;2023-12-14T06:53:42;7.70;99.90
15815;DHT22;8008;50.024;8.172;2023-12-14T06:56:10;7.70;99.90
15815;DHT22;8008;50.024;8.172;2023-12-14T06:58:40;7.70;99.90
15815;DHT22;8008;50.024;8.172;2023-12-14T07:01:11;7.80;99.90
15815;DHT22;8008;50.024;8.172;2023-12-14T07:03:40;7.80;99.90
15815;DHT22;8008;50.024;8.172;2023-12-14T07:06:11;7.80;99.90
15815;DHT22;8008;50.024;8.172;2023-12-14T07:08:39;7.80;99.90
15815;DHT22;8008;50.024;8.172;2023-12-14T07:11:09;7.80;99.90
15815;DHT22;8008;50.024;8.172;2023-12-14T07:13:38;7.90;99.90
15815;DHT22;8008;50.024;8.172;2023-12-14T07:16:08;7.90;99.90
15815;DHT22;8008;50.024;8.172;2023-12-14T07:18:36;7.90;99.90
15815;DHT22;8008;50.024;8.172;2023-12-14T07:21:05;7.80;99.90
15815;DHT22;8008;50.024;8.172;2023-12-14T07:23:33;7.70;99.90
15815;DHT22;8008;50.024;8.172;2023-12-14T07:26:01;7.70;99.90
15815;DHT22;8008;50.024;8.172;2023-12-14T07:28:35;7.60;99.90
15815;DHT22;8008;50.024;8.172;2023-12-14T07:31:03;7.60;99.90
15815;DHT22;8008;50.024;8.172;2023-12-14T07:33:31;7.70;99.90
15815;DHT22;8008;50.024;8.172;2023-12-14T07:35:59;7.80;99.90
15815;DHT22;8008;50.024;8.172;2023-12-14T07:38:27;7.80;99.90
15815;DHT22;8008;50.024;8.172;2023-12-14T07:40:55;7.80;99.90
15815;DHT22;8008;50.024;8.172;2023-12-14T07:43:24;7.90;99.90
15815;DHT22;8008;50.024;8.172;2023-12-14T07:45:53;7.90;99.90
15815;DHT22;8008;50.024;8.172;2023-12-14T07:48:21;7.90;99.90
15815;DHT22;8008;50.024;8.172;2023-12-14T07:50:49;7.90;99.90
15815;DHT22;8008;50.024;8.172;2023-12-14T07:53:18;7.90;99.90
15815;DHT22;8008;50.024;8.172;2023-12-14T07:55:46;8.00;99.90
15815;DHT22;8008;50.024;8.172;2023-12-14T07:58:15;8.00;99.90
15815;DHT22;8008;50.024;8.172;2023-12-14T08:00:43;8.00;99.90
15815;DHT22;8008;50.024;8.172;2023-12-14T08:03:12;8.00;99.90
15815;DHT22;8008;50.024;8.172;2023-12-14T08:05:40;8.00;99.90
15815;DHT22;8008;50.024;8.172;2023-12-14T08:08:08;8.00;99.90
15815;DHT22;8008;50.024;8.172;2023-12-14T08:10:36;8.10;99.90
15815;DHT22;8008;50.024;8.172;2023-12-14T08:13:04;8.10;99.90
15815;DHT22;8008;50.024;8.172;2023-12-14T08:15:32;8.10;99.90
15815;DHT22;8008;50.024;8.172;2023-12-14T08:18:00;8.10;99.90
15815;DHT22;8008;50.024;8.172;2023-12-14T08:20:29;8.10;99.90
15815;DHT22;8008;50.024;8.172;2023-12-14T08:22:57;8.10;99.90
15815;DHT22;8008;50.024;8.172;2023-12-14T08:25:25;8.10;99.90
15815;DHT22;8008;50.024;8.172;2023-12-14T08:27:53;8.20;99.90
15815;DHT22;8008;50.024;8.172;2023-12-14T08:30:21;8.30;99.90
15815;DHT22;8008;50.024;8.172;2023-12-14T08:32:50;8.30;99.90
15815;DHT22;8008;50.024;8.172;2023-12-14T08:35:18;8.40;99.90
15815;DHT22;8008;50.024;8.172;2023-12-14T08:37:48;8.30;99.90
15815;DHT22;8008;50.024;8.172;2023-12-14T08:40:16;8.30;99.90
15815;DHT22;8008;50.024;8.172;2023-12-14T08:42:44;8.30;99.90
15815;DHT22;8008;50.024;8.172;2023-12-14T08:45:12;8.30;99.90
15815;DHT22;8008;50.024;8.172;2023-12-14T08:47:40;8.30;99.90
15815;DHT22;8008;50.024;8.172;2023-12-14T08:50:08;8.20;99.90
15815;DHT22;8008;50.024;8.172;2023-12-14T08:52:36;8.10;99.90
15815;DHT22;8008;50.024;8.172;2023-12-14T08:55:07;8.20;99.90
15815;DHT22;8008;50.024;8.172;2023-12-14T08:57:35;8.30;99.90
15815;DHT22;8008;50.024;8.172;2023-12-14T09:00:05;8.30;99.90
15815;DHT22;8008;50.024;8.172;2023-12-14T09:02:33;8.40;99.90
15815;DHT22;8008;50.024;8.172;2023-12-14T09:05:01;8.40;99.90
15815;DHT22;8008;50.024;8.172;2023-12-14T09:07:31;8.40;99.90
15815;DHT22;8008;50.024;8.172;2023-12-14T09:09:59;8.40;99.90
15815;DHT22;8008;50.024;8.172;2023-12-14T09:12:28;8.50;99.90
15815;DHT22;8008;50.024;8.172;2023-12-14T09:14:56;8.50;99.90
15815;DHT22;8008;50.024;8.172;2023-12-14T09:17:24;8.40;99.90
15815;DHT22;8008;50.024;8.172;2023-12-14T09:19:53;8.40;99.90
15815;DHT22;8008;50.024;8.172;2023-12-14T09:22:20;8.40;99.90
15815;DHT22;8008;50.024;8.172;2023-12-14T09:24:48;8.40;99.90
15815;DHT22;8008;50.024;8.172;2023-12-14T09:27:17;8.40;99.90
15815;DHT22;8008;50.024;8.172;2023-12-14T09:29:46;8.40;99.90
15815;DHT22;8008;50.024;8.172;2023-12-14T09:32:14;8.40;99.90
15815;DHT22;8008;50.024;8.172;2023-12-14T09:34:44;8.40;99.90
15815;DHT22;8008;50.024;8.172;2023-12-14T09:37:12;8.40;99.90
15815;DHT22;8008;50.024;8.172;2023-12-14T09:39:41;8.50;99.90
15815;DHT22;8008;50.024;8.172;2023-12-14T09:42:09;8.50;99.90
15815;DHT22;8008;50.024;8.172;2023-12-14T09:44:37;8.50;99.90
15815;DHT22;8008;50.024;8.172;2023-12-14T09:47:06;8.50;99.90
15815;DHT22;8008;50.024;8.172;2023-12-14T09:49:36;8.50;99.90
15815;DHT22;8008;50.024;8.172;2023-12-14T09:52:04;8.50;99.90
15815;DHT22;8008;50.024;8.172;2023-12-14T09:54:33;8.50;99.90
15815;DHT22;8008;50.024;8.172;2023-12-14T09:57:01;8.50;99.90
15815;DHT22;8008;50.024;8.172;2023-12-14T09:59:29;8.40;99.90
15815;DHT22;8008;50.024;8.172;2023-12-14T10:02:09;8.40;99.90
15815;DHT22;8008;50.024;8.172;2023-12-14T10:04:37;8.30;99.90
15815;DHT22;8008;50.024;8.172;2023-12-14T10:07:05;8.40;99.90
15815;DHT22;8008;50.024;8.172;2023-12-14T10:09:36;8.40;99.90
15815;DHT22;8008;50.024;8.172;2023-12-14T10:12:06;8.40;99.90
15815;DHT22;8008;50.024;8.172;2023-12-14T10:14:35;8.50;99.90
15815;DHT22;8008;50.024;8.172;2023-12-14T10:17:16;8.50;99.90
15815;DHT22;8008;50.024;8.172;2023-12-14T10:19:45;8.60;99.90
15815;DHT22;8008;50.024;8.172;2023-12-14T10:22:14;8.60;99.90
15815;DHT22;8008;50.024;8.172;2023-12-14T10:24:44;8.60;99.90
15815;DHT22;8008;50.024;8.172;2023-12-14T10:27:14;8.50;99.90
15815;DHT22;8008;50.024;8.172;2023-12-14T10:29:42;8.60;99.90
15815;DHT22;8008;50.024;8.172;2023-12-14T10:32:11;8.60;99.90
15815;DHT22;8008;50.024;8.172;2023-12-14T10:34:42;8.60;99.90
15815;DHT22;8008;50.024;8.172;2023-12-14T10:37:12;8.60;99.90
15815;DHT22;8008;50.024;8.172;2023-12-14T10:39:42;8.50;99.90
15815;DHT22;8008;50.024;8.172;2023-12-14T10:42:10;8.40;99.90
15815;DHT22;8008;50.024;8.172;2023-12-14T10:44:49;8.40;99.90
15815;DHT22;8008;50.024;8.172;2023-12-14T10:47:21;8.40;99.90
15815;DHT22;8008;50.024;8.172;2023-12-14T10:49:51;8.50;99.90
15815;DHT22;8008;50.024;8.172;2023-12-14T10:52:21;8.50;99.90
15815;DHT22;8008;50.024;8.172;2023-12-14T10:54:53;8.60;99.90
15815;DHT22;8008;50.024;8.172;2023-12-14T10:57:24;8.60;99.90
15815;DHT22;8008;50.024;8.172;2023-12-14T10:59:57;8.60;99.90
15815;DHT22;8008;50.024;8.172;2023-12-14T11:02:26;8.80;99.90
15815;DHT22;8008;50.024;8.172;2023-12-14T11:05:00;8.80;99.90
15815;DHT22;8008;50.024;8.172;2023-12-14T11:07:50;8.80;99.90
15815;DHT22;8008;50.024;8.172;2023-12-14T11:10:21;8.70;99.90
15815;DHT22;8008;50.024;8.172;2023-12-14T11:12:54;8.80;99.90
15815;DHT22;8008;50.024;8.172;2023-12-14T11:15:24;8.80;99.90
15815;DHT22;8008;50.024;8.172;2023-12-14T11:18:20;8.80;99.90
15815;DHT22;8008;50.024;8.172;2023-12-14T11:20:52;8.80;99.90
15815;DHT22;8008;50.024;8.172;2023-12-14T11:23:30;8.80;99.90
15815;DHT22;8008;50.024;8.172;2023-12-14T11:26:01;8.80;99.90
15815;DHT22;8008;50.024;8.172;2023-12-14T11:28:33;8.70;99.90
15815;DHT22;8008;50.024;8.172;2023-12-14T11:31:02;8.70;99.90
15815;DHT22;8008;50.024;8.172;2023-12-14T11:33:35;8.70;99.90
15815;DHT22;8008;50.024;8.172;2023-12-14T11:36:12;8.70;99.90
15815;DHT22;8008;50.024;8.172;2023-12-14T11:38:41;8.70;99.90
15815;DHT22;8008;50.024;8.172;2023-12-14T11:41:10;8.70;99.90
15815;DHT22;8008;50.024;8.172;2023-12-14T11:43:41;8.60;99.90
15815;DHT22;8008;50.024;8.172;2023-12-14T11:46:10;8.70;99.90
15815;DHT22;8008;50.024;8.172;2023-12-14T11:48:39;8.70;99.90
15815;DHT22;8008;50.024;8.172;2023-12-14T11:51:07;8.80;99.90
15815;DHT22;8008;50.024;8.172;2023-12-14T11:53:38;8.90;99.90
15815;DHT22;8008;50.024;8.172;2023-12-14T11:56:07;8.80;99.90
15815;DHT22;8008;50.024;8.172;2023-12-14T11:58:36;8.80;99.90
15815;DHT22;8008;50.024;8.172;2023-12-14T12:01:14;8.80;99.90
15815;DHT22;8008;50.024;8.172;2023-12-14T12:03:43;8.90;99.90
15815;DHT22;8008;50.024;8.172;2023-12-14T12:06:20;8.90;99.90
15815;DHT22;8008;50.024;8.172;2023-12-14T12:08:52;8.80;99.90
15815;DHT22;8008;50.024;8.172;2023-12-14T12:11:22;8.80;99.90
15815;DHT22;8008;50.024;8.172;2023-12-14T12:13:51;8.70;99.90
15815;DHT22;8008;50.024;8.172;2023-12-14T12:16:20;8.80;99.90
15815;DHT22;8008;50.024;8.172;2023-12-14T12:18:48;8.90;99.90
15815;DHT22;8008;50.024;8.172;2023-12-14T12:21:18;9.00;99.90
15815;DHT22;8008;50.024;8.172;2023-12-14T12:23:46;8.90;99.90
15815;DHT22;8008;50.024;8.172;2023-12-14T12:26:15;8.80;99.90
15815;DHT22;8008;50.024;8.172;2023-12-14T12:28:43;8.80;99.90
15815;DHT22;8008;50.024;8.172;2023-12-14T12:31:15;8.60;99.90
15815;DHT22;8008;50.024;8.172;2023-12-14T12:33:43;8.60;99.90
15815;DHT22;8008;50.024;8.172;2023-12-14T12:36:12;8.70;99.90
15815;DHT22;8008;50.024;8.172;2023-12-14T12:38:40;8.60;99.90
15815;DHT22;8008;50.024;8.172;2023-12-14T12:41:08;8.50;99.90
15815;DHT22;8008;50.024;8.172;2023-12-14T12:43:37;8.50;99.90
15815;DHT22;8008;50.024;8.172;2023-12-14T12:46:05;8.50;99.90
15815;DHT22;8008;50.024;8.172;2023-12-14T12:48:34;8.60;99.90
15815;DHT22;8008;50.024;8.172;2023-12-14T12:51:03;8.60;99.90
15815;DHT22;8008;50.024;8.172;2023-12-14T12:53:32;8.50;99.90
15815;DHT22;8008;50.024;8.172;2023-12-14T12:56:01;8.60;99.90
15815;DHT22;8008;50.024;8.172;2023-12-14T12:58:30;8.60;99.90
15815;DHT22;8008;50.024;8.172;2023-12-14T13:01:00;8.70;99.90
15815;DHT22;8008;50.024;8.172;2023-12-14T13:03:28;8.70;99.90
15815;DHT22;8008;50.024;8.172;2023-12-14T13:05:56;8.70;99.90
15815;DHT22;8008;50.024;8.172;2023-12-14T13:08:24;8.60;99.90
15815;DHT22;8008;50.024;8.172;2023-12-14T13:10:52;8.70;99.90
15815;DHT22;8008;50.024;8.172;2023-12-14T13:13:22;8.70;99.90
15815;DHT22;8008;50.024;8.172;2023-12-14T13:15:50;8.70;99.90
15815;DHT22;8008;50.024;8.172;2023-12-14T13:18:19;8.70;99.90
15815;DHT22;8008;50.024;8.172;2023-12-14T13:20:47;8.80;99.90
15815;DHT22;8008;50.024;8.172;2023-12-14T13:23:15;8.80;99.90
15815;DHT22;8008;50.024;8.172;2023-12-14T13:25:43;8.90;99.90
15815;DHT22;8008;50.024;8.172;2023-12-14T13:28:12;8.90;99.90
15815;DHT22;8008;50.024;8.172;2023-12-14T13:30:43;8.80;99.90
15815;DHT22;8008;50.024;8.172;2023-12-14T13:33:12;8.90;99.90
15815;DHT22;8008;50.024;8.172;2023-12-14T13:35:41;9.00;99.90
15815;DHT22;8008;50.024;8.172;2023-12-14T13:38:09;9.10;99.90
15815;DHT22;8008;50.024;8.172;2023-12-14T13:40:38;9.00;99.90
15815;DHT22;8008;50.024;8.172;2023-12-14T13:43:06;8.90;99.90
15815;DHT22;8008;50.024;8.172;2023-12-14T13:45:37;9.00;99.90
15815;DHT22;8008;50.024;8.172;2023-12-14T13:48:06;8.90;99.90
15815;DHT22;8008;50.024;8.172;2023-12-14T13:50:35;8.60;99.90
15815;DHT22;8008;50.024;8.172;2023-12-14T13:53:05;8.60;99.90
15815;DHT22;8008;50.024;8.172;2023-12-14T13:55:34;8.70;99.90
15815;DHT22;8008;50.024;8.172;2023-12-14T13:58:02;8.60;99.90
15815;DHT22;8008;50.024;8.172;2023-12-14T14:00:30;8.50;99.90
15815;DHT22;8008;50.024;8.172;2023-12-14T14:02:59;8.50;99.90
15815;DHT22;8008;50.024;8.172;2023-12-14T14:05:27;8.50;99.90
15815;DHT22;8008;50.024;8.172;2023-12-14T14:07:55;8.60;99.90
15815;DHT22;8008;50.024;8.172;2023-12-14T14:10:24;8.60;99.90
15815;DHT22;8008;50.024;8.172;2023-12-14T14:12:52;8.50;99.90
15815;DHT22;8008;50.024;8.172;2023-12-14T14:15:21;8.60;99.90
15815;DHT22;8008;50.024;8.172;2023-12-14T14:17:48;8.50;99.90
15815;DHT22;8008;50.024;8.172;2023-12-14T14:20:19;8.50;99.90
15815;DHT22;8008;50.024;8.172;2023-12-14T14:22:47;8.50;99.90
15815;DHT22;8008;50.024;8.172;2023-12-14T14:25:15;8.50;99.90
15815;DHT22;8008;50.024;8.172;2023-12-14T14:27:45;8.50;99.90
15815;DHT22;8008;50.024;8.172;2023-12-14T14:30:14;8.40;99.90
15815;DHT22;8008;50.024;8.172;2023-12-14T14:32:43;8.40;99.90
15815;DHT22;8008;50.024;8.172;2023-12-14T14:35:12;8.30;99.90
15815;DHT22;8008;50.024;8.172;2023-12-14T14:37:40;8.40;99.90
15815;DHT22;8008;50.024;8.172;2023-12-14T14:40:12;8.40;99.90
15815;DHT22;8008;50.024;8.172;2023-12-14T14:42:41;8.50;99.90
15815;DHT22;8008;50.024;8.172;2023-12-14T14:45:11;8.60;99.90
15815;DHT22;8008;50.024;8.172;2023-12-14T14:47:40;8.60;99.90
15815;DHT22;8008;50.024;8.172;2023-12-14T14:50:10;8.60;99.90
15815;DHT22;8008;50.024;8.172;2023-12-14T14:52:38;8.50;99.90
15815;DHT22;8008;50.024;8.172;2023-12-14T14:55:07;8.40;99.90
15815;DHT22;8008;50.024;8.172;2023-12-14T14:57:35;8.40;99.90
15815;DHT22;8008;50.024;8.172;2023-12-14T15:00:04;8.40;99.90
15815;DHT22;8008;50.024;8.172;2023-12-14T15:02:34;8.40;99.90
15815;DHT22;8008;50.024;8.172;2023-12-14T15:05:02;8.40;99.90
15815;DHT22;8008;50.024;8.172;2023-12-14T15:07:31;8.40;99.90
15815;DHT22;8008;50.024;8.172;2023-12-14T15:09:58;8.40;99.90
15815;DHT22;8008;50.024;8.172;2023-12-14T15:12:26;8.50;99.90
15815;DHT22;8008;50.024;8.172;2023-12-14T15:14:54;8.40;99.90
15815;DHT22;8008;50.024;8.172;2023-12-14T15:17:23;8.40;99.90
15815;DHT22;8008;50.024;8.172;2023-12-14T15:19:53;8.30;99.90
15815;DHT22;8008;50.024;8.172;2023-12-14T15:22:21;8.20;99.90
15815;DHT22;8008;50.024;8.172;2023-12-14T15:24:49;8.20;99.90
15815;DHT22;8008;50.024;8.172;2023-12-14T15:27:17;8.10;99.90
15815;DHT22;8008;50.024;8.172;2023-12-14T15:29:45;8.00;99.90
15815;DHT22;8008;50.024;8.172;2023-12-14T15:32:13;8.00;99.90
15815;DHT22;8008;50.024;8.172;2023-12-14T15:34:41;8.10;99.90
15815;DHT22;8008;50.024;8.172;2023-12-14T15:37:11;8.00;99.90
15815;DHT22;8008;50.024;8.172;2023-12-14T15:39:39;8.00;99.90
15815;DHT22;8008;50.024;8.172;2023-12-14T15:42:07;8.00;99.90
15815;DHT22;8008;50.024;8.172;2023-12-14T15:44:35;8.00;99.90
15815;DHT22;8008;50.024;8.172;2023-12-14T15:47:03;8.10;99.90
15815;DHT22;8008;50.024;8.172;2023-12-14T15:49:31;8.00;99.90
15815;DHT22;8008;50.024;8.172;2023-12-14T15:51:59;8.10;99.90
15815;DHT22;8008;50.024;8.172;2023-12-14T15:54:28;8.00;99.90
15815;DHT22;8008;50.024;8.172;2023-12-14T15:56:56;8.00;99.90
15815;DHT22;8008;50.024;8.172;2023-12-14T15:59:25;8.00;99.90
15815;DHT22;8008;50.024;8.172;2023-12-14T16:01:54;8.00;99.90
15815;DHT22;8008;50.024;8.172;2023-12-14T16:04:22;7.90;99.90
15815;DHT22;8008;50.024;8.172;2023-12-14T16:06:49;7.80;99.90
15815;DHT22;8008;50.024;8.172;2023-12-14T16:09:18;7.80;99.90
15815;DHT22;8008;50.024;8.172;2023-12-14T16:11:47;7.80;99.90
15815;DHT22;8008;50.024;8.172;2023-12-14T16:14:15;7.80;99.90
15815;DHT22;8008;50.024;8.172;2023-12-14T16:16:43;7.80;99.90
15815;DHT22;8008;50.024;8.172;2023-12-14T16:19:11;7.90;99.90
15815;DHT22;8008;50.024;8.172;2023-12-14T16:21:40;7.90;99.90
15815;DHT22;8008;50.024;8.172;2023-12-14T16:24:08;7.90;99.90
15815;DHT22;8008;50.024;8.172;2023-12-14T16:26:35;8.00;99.90
15815;DHT22;8008;50.024;8.172;2023-12-14T16:29:07;7.90;99.90
15815;DHT22;8008;50.024;8.172;2023-12-14T16:31:40;7.80;99.90
15815;DHT22;8008;50.024;8.172;2023-12-14T16:34:09;7.70;99.90
15815;DHT22;8008;50.024;8.172;2023-12-14T16:36:37;7.60;99.90
15815;DHT22;8008;50.024;8.172;2023-12-14T16:39:05;7.70;99.90
15815;DHT22;8008;50.024;8.172;2023-12-14T16:41:36;7.80;99.90
15815;DHT22;8008;50.024;8.172;2023-12-14T16:44:04;7.70;99.90
15815;DHT22;8008;50.024;8.172;2023-12-14T16:46:33;7.80;99.90
15815;DHT22;8008;50.024;8.172;2023-12-14T16:49:01;7.70;99.90
15815;DHT22;8008;50.024;8.172;2023-12-14T16:51:30;7.80;99.90
15815;DHT22;8008;50.024;8.172;2023-12-14T16:53:57;7.80;99.90
15815;DHT22;8008;50.024;8.172;2023-12-14T16:56:30;7.70;99.90
15815;DHT22;8008;50.024;8.172;2023-12-14T16:58:58;7.70;99.90
15815;DHT22;8008;50.024;8.172;2023-12-14T17:01:26;7.70;99.90
15815;DHT22;8008;50.024;8.172;2023-12-14T17:03:56;7.60;99.90
15815;DHT22;8008;50.024;8.172;2023-12-14T17:06:25;7.50;99.90
15815;DHT22;8008;50.024;8.172;2023-12-14T17:08:54;7.40;99.90
15815;DHT22;8008;50.024;8.172;2023-12-14T17:11:22;7.40;99.90
15815;DHT22;8008;50.024;8.172;2023-12-14T17:13:50;7.50;99.90
15815;DHT22;8008;50.024;8.172;2023-12-14T17:16:19;7.60;99.90
15815;DHT22;8008;50.024;8.172;2023-12-14T17:18:48;7.50;99.90
15815;DHT22;8008;50.024;8.172;2023-12-14T17:21:18;7.60;99.90
15815;DHT22;8008;50.024;8.172;2023-12-14T17:23:46;7.70;99.90
15815;DHT22;8008;50.024;8.172;2023-12-14T17:26:15;7.60;99.90
15815;DHT22;8008;50.024;8.172;2023-12-14T17:28:44;7.60;99.90
15815;DHT22;8008;50.024;8.172;2023-12-14T17:31:13;7.50;99.90
15815;DHT22;8008;50.024;8.172;2023-12-14T17:33:42;7.60;99.90
15815;DHT22;8008;50.024;8.172;2023-12-14T17:36:11;7.60;99.90
15815;DHT22;8008;50.024;8.172;2023-12-14T17:38:40;7.60;99.90
15815;DHT22;8008;50.024;8.172;2023-12-14T17:41:09;7.70;99.90
15815;DHT22;8008;50.024;8.172;2023-12-14T17:43:37;7.60;99.90
15815;DHT22;8008;50.024;8.172;2023-12-14T17:46:05;7.50;99.90
15815;DHT22;8008;50.024;8.172;2023-12-14T17:48:34;7.60;99.90
15815;DHT22;8008;50.024;8.172;2023-12-14T17:51:02;7.60;99.90
15815;DHT22;8008;50.024;8.172;2023-12-14T17:53:30;7.70;99.90
15815;DHT22;8008;50.024;8.172;2023-12-14T17:56:01;7.80;99.90
15815;DHT22;8008;50.024;8.172;2023-12-14T17:58:29;7.80;99.90
15815;DHT22;8008;50.024;8.172;2023-12-14T18:00:57;7.80;99.90
15815;DHT22;8008;50.024;8.172;2023-12-14T18:03:31;7.90;99.90
15815;DHT22;8008;50.024;8.172;2023-12-14T18:06:00;7.90;99.90
15815;DHT22;8008;50.024;8.172;2023-12-14T18:08:29;7.90;99.90
15815;DHT22;8008;50.024;8.172;2023-12-14T18:10:57;7.70;99.90
15815;DHT22;8008;50.024;8.172;2023-12-14T18:13:26;7.60;99.90
15815;DHT22;8008;50.024;8.172;2023-12-14T18:15:54;7.50;99.90
15815;DHT22;8008;50.024;8.172;2023-12-14T18:18:22;7.60;99.90
15815;DHT22;8008;50.024;8.172;2023-12-14T18:20:50;7.50;99.90
15815;DHT22;8008;50.024;8.172;2023-12-14T18:23:18;7.60;99.90
15815;DHT22;8008;50.024;8.172;2023-12-14T18:25:47;7.50;99.90
15815;DHT22;8008;50.024;8.172;2023-12-14T18:28:15;7.40;99.90
15815;DHT22;8008;50.024;8.172;2023-12-14T18:30:46;7.60;99.90
15815;DHT22;8008;50.024;8.172;2023-12-14T18:33:14;7.50;99.90
15815;DHT22;8008;50.024;8.172;2023-12-14T18:35:43;7.50;99.90
15815;DHT22;8008;50.024;8.172;2023-12-14T18:38:11;7.50;99.90
15815;DHT22;8008;50.024;8.172;2023-12-14T18:40:39;7.60;99.90
15815;DHT22;8008;50.024;8.172;2023-12-14T18:43:07;7.60;99.90
15815;DHT22;8008;50.024;8.172;2023-12-14T18:45:35;7.70;99.90
15815;DHT22;8008;50.024;8.172;2023-12-14T18:48:07;7.70;99.90
15815;DHT22;8008;50.024;8.172;2023-12-14T18:50:35;7.60;99.90
15815;DHT22;8008;50.024;8.172;2023-12-14T18:53:03;7.60;99.90
15815;DHT22;8008;50.024;8.172;2023-12-14T18:55:35;7.60;99.90
15815;DHT22;8008;50.024;8.172;2023-12-14T18:58:04;7.60;99.90
15815;DHT22;8008;50.024;8.172;2023-12-14T19:00:32;7.60;99.90
15815;DHT22;8008;50.024;8.172;2023-12-14T19:03:00;7.60;99.90
15815;DHT22;8008;50.024;8.172;2023-12-14T19:05:33;7.60;99.90
15815;DHT22;8008;50.024;8.172;2023-12-14T19:08:03;7.70;99.90
15815;DHT22;8008;50.024;8.172;2023-12-14T19:10:31;7.70;99.90
15815;DHT22;8008;50.024;8.172;2023-12-14T19:13:01;7.70;99.90
15815;DHT22;8008;50.024;8.172;2023-12-14T19:15:31;7.70;99.90
15815;DHT22;8008;50.024;8.172;2023-12-14T19:18:00;7.80;99.90
15815;DHT22;8008;50.024;8.172;2023-12-14T19:20:28;7.80;99.90
15815;DHT22;8008;50.024;8.172;2023-12-14T19:22:57;7.80;99.90
15815;DHT22;8008;50.024;8.172;2023-12-14T19:25:26;7.80;99.90
15815;DHT22;8008;50.024;8.172;2023-12-14T19:27:54;7.80;99.90
15815;DHT22;8008;50.024;8.172;2023-12-14T19:30:22;7.80;99.90
15815;DHT22;8008;50.024;8.172;2023-12-14T19:32:50;7.80;99.90
15815;DHT22;8008;50.024;8.172;2023-12-14T19:35:19;7.80;99.90
15815;DHT22;8008;50.024;8.172;2023-12-14T19:37:47;7.70;99.90
15815;DHT22;8008;50.024;8.172;2023-12-14T19:40:17;7.50;99.90
15815;DHT22;8008;50.024;8.172;2023-12-14T19:42:45;7.30;99.90
15815;DHT22;8008;50.024;8.172;2023-12-14T19:45:13;7.40;99.90
15815;DHT22;8008;50.024;8.172;2023-12-14T19:47:41;7.40;99.90
15815;DHT22;8008;50.024;8.172;2023-12-14T19:50:11;7.50;99.90
15815;DHT22;8008;50.024;8.172;2023-12-14T19:52:40;7.60;99.90
15815;DHT22;8008;50.024;8.172;2023-12-14T19:55:09;7.60;99.90
15815;DHT22;8008;50.024;8.172;2023-12-14T19:57:40;7.60;99.90
15815;DHT22;8008;50.024;8.172;2023-12-14T20:00:10;7.60;99.90
15815;DHT22;8008;50.024;8.172;2023-12-14T20:02:38;7.60;99.90
15815;DHT22;8008;50.024;8.172;2023-12-14T20:05:07;7.60;99.90
15815;DHT22;8008;50.024;8.172;2023-12-14T20:07:35;7.60;99.90
15815;DHT22;8008;50.024;8.172;2023-12-14T20:10:05;7.50;99.90
15815;DHT22;8008;50.024;8.172;2023-12-14T20:12:33;7.50;99.90